createdAt,value
2023-05-27T00:01:53.222Z,19.50
2023-05-27T00:04:20.774Z,17.83
2023-05-27T00:06:49.004Z,14.40
2023-05-27T00:09:16.367Z,22.17
2023-05-27T00:11:43.747Z,17.45
2023-05-27T00:14:11.163Z,13.52
2023-05-27T00:16:38.665Z,21.55
2023-05-27T00:19:09.040Z,20.45
2023-05-27T00:21:37.912Z,15.05
2023-05-27T00:24:06.001Z,16.58
2023-05-27T00:26:33.283Z,16.67
2023-05-27T00:29:01.289Z,14.70
2023-05-27T00:31:28.790Z,16.50
2023-05-27T00:33:56.320Z,13.93
2023-05-27T00:36:23.721Z,15.00
2023-05-27T00:38:51.041Z,17.83
2023-05-27T00:41:18.987Z,15.75
2023-05-27T00:43:46.219Z,16.02
2023-05-27T00:46:13.548Z,15.05
2023-05-27T00:48:41.070Z,13.50
2023-05-27T00:51:08.152Z,13.57
2023-05-27T00:53:44.012Z,14.85
2023-05-27T00:56:14.152Z,16.20
2023-05-27T00:58:41.460Z,14.80
2023-05-27T01:01:08.651Z,44.58
2023-05-27T01:03:36.635Z,44.60
2023-05-27T01:06:31.660Z,29.63
2023-05-27T01:09:01.776Z,27.88
2023-05-27T01:11:39.247Z,34.67
2023-05-27T01:14:12.117Z,34.38
2023-05-27T01:19:19.393Z,26.10
2023-05-27T01:21:53.309Z,31.95
2023-05-27T01:24:21.297Z,41.45
2023-05-27T01:26:49.148Z,26.67
2023-05-27T01:29:17.647Z,26.23
2023-05-27T01:32:19.837Z,38.25
2023-05-27T01:35:15.248Z,26.88
2023-05-27T01:37:44.869Z,28.08
2023-05-27T01:40:14.813Z,24.48
2023-05-27T01:42:44.678Z,32.70
2023-05-27T01:45:12.948Z,63.08
2023-05-27T01:47:41.153Z,40.55
2023-05-27T01:50:08.819Z,56.65
2023-05-27T01:52:36.270Z,45.72
2023-05-27T01:55:05.876Z,50.85
2023-05-27T01:57:33.677Z,37.55
2023-05-27T02:00:01.334Z,37.65
2023-05-27T02:02:28.709Z,36.85
2023-05-27T02:04:56.023Z,26.00
2023-05-27T02:07:24.075Z,39.67
2023-05-27T02:09:51.751Z,37.05
2023-05-27T02:12:19.924Z,29.42
2023-05-27T02:14:47.660Z,35.38
2023-05-27T02:17:15.989Z,61.28
2023-05-27T02:19:43.466Z,69.65
2023-05-27T02:22:11.573Z,49.28
2023-05-27T02:24:38.731Z,52.83
2023-05-27T02:27:07.085Z,45.25
2023-05-27T02:29:34.143Z,33.85
2023-05-27T02:32:01.534Z,42.72
2023-05-27T02:34:28.638Z,45.05
2023-05-27T02:36:56.790Z,33.90
2023-05-27T02:39:23.847Z,35.08
2023-05-27T02:41:52.629Z,19.65
2023-05-27T02:44:19.709Z,52.45
2023-05-27T02:46:46.982Z,49.72
2023-05-27T02:49:14.078Z,43.90
2023-05-27T02:51:41.273Z,59.83
2023-05-27T02:54:08.501Z,42.40
2023-05-27T02:56:35.880Z,58.25
2023-05-27T02:59:03.391Z,39.67
2023-05-27T03:01:30.664Z,47.95
2023-05-27T03:03:58.002Z,37.50
2023-05-27T03:06:25.080Z,31.98
2023-05-27T03:08:52.185Z,44.80
2023-05-27T03:11:19.407Z,34.35
2023-05-27T03:13:46.612Z,33.78
2023-05-27T03:16:15.309Z,22.25
2023-05-27T03:18:42.691Z,30.75
2023-05-27T03:21:10.130Z,28.98
2023-05-27T03:23:37.261Z,27.77
2023-05-27T03:26:04.840Z,26.70
2023-05-27T03:28:32.696Z,34.85
2023-05-27T03:31:00.891Z,33.53
2023-05-27T03:33:41.693Z,29.40
2023-05-27T03:36:09.214Z,36.40
2023-05-27T03:38:36.509Z,19.80
2023-05-27T03:41:03.805Z,25.42
2023-05-27T03:43:31.284Z,22.90
2023-05-27T03:45:58.851Z,25.13
2023-05-27T03:48:26.464Z,23.80
2023-05-27T03:50:53.547Z,19.77
2023-05-27T03:53:20.949Z,22.33
2023-05-27T03:55:47.979Z,22.13
2023-05-27T03:58:15.066Z,22.63
2023-05-27T04:00:42.902Z,25.02
2023-05-27T04:03:11.236Z,25.95
2023-05-27T04:05:38.765Z,19.35
2023-05-27T04:08:06.093Z,22.83
2023-05-27T04:10:33.385Z,21.02
2023-05-27T04:13:00.825Z,22.05
2023-05-27T04:15:27.992Z,22.63
2023-05-27T04:17:55.090Z,20.80
2023-05-27T04:20:23.146Z,23.95
2023-05-27T04:22:54.686Z,22.88
2023-05-27T04:25:21.959Z,25.50
2023-05-27T04:28:06.050Z,26.55
2023-05-27T04:33:10.270Z,24.33
2023-05-27T04:35:38.141Z,18.20
2023-05-27T04:38:05.246Z,21.55
2023-05-27T04:40:47.707Z,18.48
2023-05-27T04:45:57.281Z,19.27
2023-05-27T04:48:25.270Z,20.33
2023-05-27T04:50:55.208Z,20.10
2023-05-27T04:53:22.849Z,25.83
2023-05-27T04:55:52.346Z,21.33
2023-05-27T04:58:20.793Z,19.40
2023-05-27T05:00:54.603Z,20.33
2023-05-27T05:03:37.910Z,18.70
2023-05-27T05:06:06.705Z,21.95
2023-05-27T05:08:34.186Z,28.35
2023-05-27T05:11:01.904Z,38.15
2023-05-27T05:13:30.576Z,35.03
2023-05-27T05:15:57.987Z,36.63
2023-05-27T05:18:25.037Z,41.08
2023-05-27T05:20:55.732Z,40.58
2023-05-27T05:23:32.419Z,34.90
2023-05-27T05:26:07.232Z,32.47
2023-05-27T05:28:37.634Z,22.00
2023-05-27T05:31:06.291Z,19.83
2023-05-27T05:33:33.378Z,23.98
2023-05-27T05:36:01.318Z,15.43
2023-05-27T05:38:36.842Z,19.40
2023-05-27T05:41:04.366Z,15.75
2023-05-27T05:43:34.085Z,24.98
2023-05-27T05:46:03.443Z,19.65
2023-05-27T05:48:31.818Z,19.83
2023-05-27T05:51:02.162Z,20.63
2023-05-27T05:53:30.472Z,24.55
2023-05-27T05:55:57.850Z,22.23
2023-05-27T05:58:26.130Z,22.27
2023-05-27T06:00:53.389Z,16.42
2023-05-27T06:03:33.144Z,22.27
2023-05-27T06:06:01.853Z,23.35
2023-05-27T06:08:29.427Z,18.13
2023-05-27T06:11:03.299Z,19.77
2023-05-27T06:13:34.109Z,21.02
2023-05-27T06:16:06.099Z,16.80
2023-05-27T06:18:33.807Z,21.27
2023-05-27T06:21:00.853Z,23.08
2023-05-27T06:23:31.416Z,24.10
2023-05-27T06:26:07.553Z,20.50
2023-05-27T06:28:41.994Z,18.48
2023-05-27T06:31:10.975Z,15.98
2023-05-27T06:33:42.078Z,19.45
2023-05-27T06:36:09.700Z,23.52
2023-05-27T06:38:39.555Z,21.77
2023-05-27T06:41:06.892Z,16.08
2023-05-27T06:43:34.860Z,12.77
2023-05-27T06:46:20.765Z,15.82
2023-05-27T06:49:09.406Z,14.88
2023-05-27T06:51:37.266Z,11.20
2023-05-27T06:54:05.856Z,14.55
2023-05-27T06:56:38.434Z,19.35
2023-05-27T06:59:24.264Z,16.48
2023-05-27T07:01:52.575Z,13.90
2023-05-27T07:04:19.809Z,13.93
2023-05-27T07:06:55.938Z,14.32
2023-05-27T07:09:23.276Z,15.90
2023-05-27T07:11:50.413Z,16.50
2023-05-27T07:14:37.845Z,14.70
2023-05-27T07:17:06.348Z,14.77
2023-05-27T07:19:33.525Z,11.52
2023-05-27T07:22:05.915Z,11.55
2023-05-27T07:24:35.479Z,14.45
2023-05-27T07:27:06.012Z,11.85
2023-05-27T07:29:36.920Z,14.02
2023-05-27T07:32:15.362Z,11.75
2023-05-27T07:34:45.002Z,10.02
2023-05-27T07:37:14.668Z,16.15
2023-05-27T07:39:44.693Z,13.80
2023-05-27T07:42:18.097Z,15.48
2023-05-27T07:44:47.047Z,16.70
2023-05-27T07:47:16.182Z,11.63
2023-05-27T07:49:44.298Z,12.23
2023-05-27T07:52:34.710Z,12.10
2023-05-27T07:55:12.051Z,14.45
2023-05-27T07:57:41.772Z,16.83
2023-05-27T08:00:09.693Z,15.70
2023-05-27T08:02:54.832Z,16.02
2023-05-27T08:08:33.420Z,17.33
2023-05-27T08:11:20.255Z,13.80
2023-05-27T08:13:59.481Z,16.13
2023-05-27T08:17:00.421Z,14.45
2023-05-27T08:19:51.029Z,15.73
2023-05-27T08:22:44.122Z,13.60
2023-05-27T08:25:20.695Z,14.45
2023-05-27T08:28:03.064Z,13.02
2023-05-27T08:31:02.594Z,14.73
2023-05-27T08:33:39.175Z,19.77
2023-05-27T08:36:07.207Z,18.38
2023-05-27T08:38:35.155Z,15.85
2023-05-27T08:41:18.375Z,15.15
2023-05-27T08:43:46.738Z,15.98
2023-05-27T08:46:16.230Z,17.70
2023-05-27T08:48:44.602Z,20.20
2023-05-27T08:51:13.885Z,19.80
2023-05-27T08:53:41.336Z,17.85
2023-05-27T08:56:10.230Z,17.23
2023-05-27T08:58:43.032Z,13.88
2023-05-27T09:01:10.944Z,19.65
2023-05-27T09:03:38.788Z,17.23
2023-05-27T09:06:06.409Z,16.70
2023-05-27T09:08:49.517Z,14.27
2023-05-27T09:11:25.401Z,12.82
2023-05-27T09:13:57.248Z,17.17
2023-05-27T09:16:31.619Z,13.23
2023-05-27T09:18:59.085Z,13.93
2023-05-27T09:21:30.139Z,15.38
2023-05-27T09:24:01.167Z,13.65
2023-05-27T09:26:29.062Z,11.50
2023-05-27T09:28:57.000Z,23.38
2023-05-27T09:31:25.550Z,15.15
2023-05-27T09:33:53.176Z,12.90
2023-05-27T09:36:23.905Z,14.70
2023-05-27T09:38:52.103Z,13.88
2023-05-27T09:41:26.532Z,13.00
2023-05-27T09:43:57.635Z,14.75
2023-05-27T09:46:27.274Z,17.67
2023-05-27T09:48:55.515Z,17.27
2023-05-27T09:51:23.911Z,19.60
2023-05-27T09:53:54.698Z,15.57
2023-05-27T09:56:24.699Z,15.90
2023-05-27T09:58:52.272Z,17.02
2023-05-27T10:01:20.263Z,15.18
2023-05-27T10:03:48.340Z,18.05
2023-05-27T10:06:16.649Z,15.75
2023-05-27T10:08:44.866Z,15.13
2023-05-27T10:11:13.019Z,16.30
2023-05-27T10:13:40.519Z,14.05
2023-05-27T10:16:07.745Z,15.98
2023-05-27T10:18:35.300Z,18.45
2023-05-27T10:21:06.418Z,13.35
2023-05-27T10:23:33.826Z,15.93
2023-05-27T10:26:07.406Z,14.32
2023-05-27T10:28:42.861Z,19.33
2023-05-27T10:31:18.954Z,17.27
2023-05-27T10:33:48.885Z,15.98
2023-05-27T10:36:37.877Z,15.13
2023-05-27T10:39:06.795Z,12.88
2023-05-27T10:41:42.518Z,16.23
2023-05-27T10:44:14.363Z,15.90
2023-05-27T10:46:45.536Z,19.65
2023-05-27T10:49:24.980Z,19.13
2023-05-27T10:51:54.747Z,14.40
2023-05-27T10:54:29.574Z,14.48
2023-05-27T10:56:57.558Z,18.30
2023-05-27T10:59:25.797Z,17.35
2023-05-27T11:01:54.858Z,15.35
2023-05-27T11:04:23.692Z,14.90
2023-05-27T11:07:03.706Z,16.90
2023-05-27T11:09:33.036Z,13.48
2023-05-27T11:12:06.582Z,14.80
2023-05-27T11:14:34.930Z,14.48
2023-05-27T11:17:02.184Z,18.80
2023-05-27T11:19:29.586Z,13.15
2023-05-27T11:21:56.992Z,11.68
2023-05-27T11:24:24.320Z,15.80
2023-05-27T11:26:52.263Z,18.05
2023-05-27T11:29:19.935Z,15.18
2023-05-27T11:31:50.970Z,19.00
2023-05-27T11:34:22.033Z,15.13
2023-05-27T11:36:51.361Z,17.05
2023-05-27T11:39:18.434Z,15.18
2023-05-27T11:41:52.380Z,12.98
2023-05-27T11:44:26.413Z,12.00
2023-05-27T11:47:02.554Z,12.20
2023-05-27T11:49:30.042Z,11.82
2023-05-27T11:51:58.759Z,12.07
2023-05-27T11:54:28.559Z,13.77
2023-05-27T11:56:57.401Z,14.68
2023-05-27T11:59:25.257Z,13.55
2023-05-27T12:01:55.390Z,15.25
2023-05-27T12:04:22.801Z,15.80
2023-05-27T12:06:49.961Z,14.65
2023-05-27T12:09:17.630Z,13.70
2023-05-27T12:11:44.724Z,15.50
2023-05-27T12:14:11.871Z,12.80
2023-05-27T12:16:39.129Z,16.65
2023-05-27T12:19:06.745Z,13.98
2023-05-27T12:21:33.885Z,13.23
2023-05-27T12:24:01.025Z,14.13
2023-05-27T12:26:28.272Z,13.80
2023-05-27T12:28:55.603Z,15.05
2023-05-27T12:31:24.310Z,13.95
2023-05-27T12:33:51.486Z,14.88
2023-05-27T12:36:20.473Z,15.45
2023-05-27T12:38:47.832Z,17.83
2023-05-27T12:41:15.111Z,19.42
2023-05-27T12:43:42.169Z,16.20
2023-05-27T12:46:09.701Z,15.95
2023-05-27T12:48:36.833Z,16.00
2023-05-27T12:51:04.382Z,18.95
2023-05-27T12:53:31.564Z,17.33
2023-05-27T12:55:58.797Z,16.60
2023-05-27T12:58:25.996Z,13.45
2023-05-27T13:00:55.606Z,15.27
2023-05-27T13:03:23.031Z,15.70
2023-05-27T13:05:50.534Z,13.70
2023-05-27T13:08:17.805Z,13.45
2023-05-27T13:10:45.881Z,11.80
2023-05-27T13:13:12.986Z,13.43
2023-05-27T13:15:42.814Z,12.80
2023-05-27T13:18:11.538Z,14.88
2023-05-27T13:20:39.159Z,11.48
2023-05-27T13:23:06.945Z,13.82
2023-05-27T13:25:34.259Z,13.95
2023-05-27T13:28:02.747Z,15.68
2023-05-27T13:30:30.321Z,11.40
2023-05-27T13:32:57.684Z,13.88
2023-05-27T13:35:24.911Z,11.60
2023-05-27T13:37:52.633Z,14.77
2023-05-27T13:40:20.245Z,14.07
2023-05-27T13:42:47.678Z,15.23
2023-05-27T13:45:14.862Z,15.50
2023-05-27T13:47:44.187Z,13.55
2023-05-27T13:50:11.631Z,11.98
2023-05-27T13:52:40.192Z,15.38
2023-05-27T13:55:08.053Z,14.57
2023-05-27T13:57:35.334Z,16.85
2023-05-27T14:00:02.520Z,11.82
2023-05-27T14:02:32.278Z,15.50
2023-05-27T14:04:59.592Z,12.90
2023-05-27T14:07:26.976Z,17.52
2023-05-27T14:09:56.007Z,14.07
2023-05-27T14:12:23.292Z,14.82
2023-05-27T14:14:50.410Z,14.63
2023-05-27T14:17:17.559Z,14.77
2023-05-27T14:19:44.726Z,11.85
2023-05-27T14:22:12.893Z,18.38
2023-05-27T14:24:39.910Z,11.05
2023-05-27T14:27:08.166Z,12.75
2023-05-27T14:29:35.512Z,13.80
2023-05-27T14:32:03.081Z,20.92
2023-05-27T14:34:30.287Z,18.25
2023-05-27T14:36:57.424Z,15.30
2023-05-27T14:39:24.632Z,11.27
2023-05-27T14:41:51.875Z,17.08
2023-05-27T14:44:19.144Z,20.42
2023-05-27T14:46:46.456Z,17.35
2023-05-27T14:49:13.668Z,16.90
2023-05-27T14:51:40.893Z,13.65
2023-05-27T14:54:09.859Z,12.40
2023-05-27T14:56:38.422Z,16.90
2023-05-27T14:59:05.639Z,18.92
2023-05-27T15:01:32.980Z,19.65
2023-05-27T15:04:00.403Z,16.08
2023-05-27T15:06:27.779Z,16.88
2023-05-27T15:08:54.956Z,15.48
2023-05-27T15:11:22.170Z,15.75
2023-05-27T15:13:49.232Z,14.13
2023-05-27T15:16:16.492Z,19.77
2023-05-27T15:18:43.625Z,16.92
2023-05-27T15:21:11.211Z,18.75
2023-05-27T15:23:38.404Z,17.45
2023-05-27T15:26:05.659Z,15.75
2023-05-27T15:28:32.918Z,11.07
2023-05-27T15:31:00.205Z,15.90
2023-05-27T15:33:27.516Z,11.15
2023-05-27T15:35:55.132Z,10.88
2023-05-27T15:38:22.306Z,10.07
2023-05-27T15:40:49.499Z,23.17
2023-05-27T15:46:33.221Z,22.45
2023-05-27T15:49:01.343Z,18.02
2023-05-27T15:51:28.757Z,21.52
2023-05-27T15:53:56.523Z,15.50
2023-05-27T15:56:23.740Z,19.40
2023-05-27T15:58:50.938Z,16.02
2023-05-27T16:01:18.128Z,24.77
2023-05-27T16:03:45.337Z,23.67
2023-05-27T16:06:12.750Z,19.13
2023-05-27T16:08:39.828Z,13.82
2023-05-27T16:11:07.414Z,14.68
2023-05-27T16:13:36.548Z,17.42
2023-05-27T16:16:03.800Z,18.52
2023-05-27T16:18:32.919Z,18.67
2023-05-27T16:21:00.805Z,16.55
2023-05-27T16:23:28.339Z,23.85
2023-05-27T16:25:56.476Z,15.98
2023-05-27T16:28:24.167Z,13.77
2023-05-27T16:30:52.155Z,14.75
2023-05-27T16:33:19.682Z,14.55
2023-05-27T16:35:46.866Z,14.27
2023-05-27T16:38:14.183Z,14.93
2023-05-27T16:40:41.198Z,16.48
2023-05-27T16:43:08.618Z,12.45
2023-05-27T16:45:35.695Z,12.52
2023-05-27T16:48:07.946Z,12.15
2023-05-27T16:50:38.368Z,11.95
2023-05-27T16:53:05.676Z,11.35
2023-05-27T16:55:32.688Z,13.50
2023-05-27T16:57:59.942Z,13.50
2023-05-27T17:00:27.141Z,10.43
2023-05-27T17:02:54.432Z,11.77
2023-05-27T17:05:21.755Z,11.77
2023-05-27T17:07:49.008Z,13.60
2023-05-27T17:10:16.461Z,13.85
2023-05-27T17:12:43.707Z,15.10
2023-05-27T17:15:11.839Z,16.00
2023-05-27T17:17:39.231Z,14.45
2023-05-27T17:20:08.409Z,14.80
2023-05-27T17:22:38.772Z,17.23
2023-05-27T17:25:06.683Z,12.73
2023-05-27T17:27:35.084Z,13.27
2023-05-27T17:30:04.033Z,11.25
2023-05-27T17:32:31.248Z,14.00
2023-05-27T17:34:58.341Z,14.52
2023-05-27T17:37:28.277Z,15.70
2023-05-27T17:39:55.814Z,12.55
2023-05-27T17:42:23.406Z,17.48
2023-05-27T17:44:51.072Z,14.13
2023-05-27T17:47:18.081Z,12.30
2023-05-27T17:49:45.448Z,14.82
2023-05-27T17:52:20.942Z,14.40
2023-05-27T17:54:49.218Z,14.13
2023-05-27T17:57:16.251Z,13.43
2023-05-27T17:59:44.743Z,13.00
2023-05-27T18:02:11.851Z,19.05
2023-05-27T18:04:39.079Z,17.25
2023-05-27T18:07:06.344Z,12.90
2023-05-27T18:09:33.494Z,18.15
2023-05-27T18:12:00.495Z,16.45
2023-05-27T18:14:29.775Z,13.75
2023-05-27T18:16:57.116Z,15.90
2023-05-27T18:19:27.150Z,13.65
2023-05-27T18:22:00.077Z,15.45
2023-05-27T18:24:28.477Z,14.20
2023-05-27T18:26:56.689Z,16.90
2023-05-27T18:29:26.658Z,17.80
2023-05-27T18:31:53.909Z,17.55
2023-05-27T18:34:21.178Z,18.60
2023-05-27T18:36:48.506Z,18.88
2023-05-27T18:39:15.760Z,20.90
2023-05-27T18:41:44.422Z,17.52
2023-05-27T18:44:11.533Z,15.55
2023-05-27T18:46:39.498Z,18.27
2023-05-27T18:49:07.300Z,12.80
2023-05-27T18:51:35.069Z,15.13
2023-05-27T18:54:02.920Z,12.93
2023-05-27T18:56:31.755Z,14.77
2023-05-27T18:58:59.005Z,14.80
2023-05-27T19:01:26.327Z,11.93
2023-05-27T19:03:53.555Z,13.10
2023-05-27T19:06:21.084Z,15.45
2023-05-27T19:08:48.112Z,14.15
2023-05-27T19:11:15.303Z,13.15
2023-05-27T19:13:42.597Z,13.23
2023-05-27T19:16:10.011Z,15.75
2023-05-27T19:18:37.276Z,15.77
2023-05-27T19:21:05.169Z,15.07
2023-05-27T19:23:32.514Z,17.15
2023-05-27T19:25:59.772Z,15.88
2023-05-27T19:28:26.885Z,15.10
2023-05-27T19:30:54.449Z,14.05
2023-05-27T19:33:23.716Z,14.30
2023-05-27T19:35:51.564Z,14.13
2023-05-27T19:38:18.838Z,18.27
2023-05-27T19:40:46.202Z,14.65
2023-05-27T19:43:13.749Z,14.13
2023-05-27T19:45:41.528Z,13.75
2023-05-27T19:48:09.274Z,17.25
2023-05-27T19:50:37.532Z,14.63
2023-05-27T19:53:05.749Z,18.65
2023-05-27T19:55:36.653Z,17.73
2023-05-27T19:58:05.423Z,18.23
2023-05-27T20:00:33.001Z,26.23
2023-05-27T20:03:00.465Z,38.80
2023-05-27T20:05:28.581Z,32.25
2023-05-27T20:07:56.560Z,19.52
2023-05-27T20:10:24.492Z,28.40
2023-05-27T20:12:52.619Z,21.10
2023-05-27T20:15:19.856Z,20.73
2023-05-27T20:17:47.284Z,25.27
2023-05-27T20:20:14.763Z,25.55
2023-05-27T20:22:42.469Z,24.05
2023-05-27T20:25:10.252Z,19.17
2023-05-27T20:27:37.502Z,24.73
2023-05-27T20:30:05.479Z,26.33
2023-05-27T20:32:32.670Z,18.00
2023-05-27T20:34:59.966Z,21.17
2023-05-27T20:37:27.069Z,21.83
2023-05-27T20:39:54.677Z,24.45
2023-05-27T20:42:21.947Z,32.78
2023-05-27T20:44:49.200Z,23.77
2023-05-27T20:47:16.738Z,32.88
2023-05-27T20:49:43.849Z,33.45
2023-05-27T20:52:11.097Z,27.63
2023-05-27T20:54:38.204Z,33.78
2023-05-27T20:57:06.508Z,30.67
2023-05-27T20:59:33.973Z,29.30
2023-05-27T21:02:09.243Z,28.35
2023-05-27T21:04:36.648Z,24.10
2023-05-27T21:07:03.767Z,26.35
2023-05-27T21:09:32.663Z,28.50
2023-05-27T21:11:59.926Z,20.98
2023-05-27T21:14:27.237Z,26.58
2023-05-27T21:16:54.463Z,29.50
2023-05-27T21:19:21.729Z,31.52
2023-05-27T21:21:49.222Z,24.38
2023-05-27T21:24:16.642Z,26.23
2023-05-27T21:26:44.339Z,20.20
2023-05-27T21:29:12.133Z,29.33
2023-05-27T21:31:39.503Z,25.77
2023-05-27T21:34:07.075Z,28.90
2023-05-27T21:36:34.770Z,17.88
2023-05-27T21:39:01.868Z,21.27
2023-05-27T21:41:29.146Z,28.00
2023-05-27T21:43:56.439Z,28.90
2023-05-27T21:46:23.838Z,24.42
2023-05-27T21:48:51.258Z,21.52
2023-05-27T21:51:18.413Z,33.65
2023-05-27T21:53:46.310Z,20.98
2023-05-27T21:56:13.500Z,24.77
2023-05-27T21:58:41.911Z,19.95
2023-05-27T22:01:13.315Z,19.38
2023-05-27T22:03:41.367Z,18.77
2023-05-27T22:06:08.541Z,22.02
2023-05-27T22:08:36.487Z,20.58
2023-05-27T22:11:04.522Z,25.80
2023-05-27T22:13:32.408Z,26.38
2023-05-27T22:16:02.250Z,23.88
2023-05-27T22:18:29.968Z,21.65
2023-05-27T22:20:57.445Z,21.70
2023-05-27T22:23:24.706Z,21.58
2023-05-27T22:25:51.970Z,21.40
2023-05-27T22:28:19.413Z,20.52
2023-05-27T22:30:46.981Z,19.20
2023-05-27T22:33:14.248Z,22.02
2023-05-27T22:35:41.276Z,18.13
2023-05-27T22:38:08.507Z,22.05
2023-05-27T22:40:36.008Z,25.67
2023-05-27T22:43:03.130Z,26.30
2023-05-27T22:45:30.414Z,27.40
2023-05-27T22:47:57.719Z,26.55
2023-05-27T22:50:25.045Z,30.38
2023-05-27T22:52:52.132Z,24.27
2023-05-27T22:55:19.455Z,21.52
2023-05-27T22:57:46.568Z,35.10
2023-05-27T23:00:14.424Z,24.92
2023-05-27T23:02:41.694Z,23.60
2023-05-27T23:05:09.180Z,30.48
2023-05-27T23:07:36.406Z,30.63
2023-05-27T23:10:03.660Z,37.67
2023-05-27T23:12:30.856Z,30.42
2023-05-27T23:14:57.885Z,39.42
2023-05-27T23:17:25.247Z,36.67
2023-05-27T23:19:52.417Z,32.90
2023-05-27T23:22:19.692Z,29.83
2023-05-27T23:24:46.712Z,33.88
2023-05-27T23:27:13.760Z,28.48
2023-05-27T23:29:41.022Z,25.73
2023-05-27T23:32:08.097Z,30.10
2023-05-27T23:34:35.194Z,34.85
2023-05-27T23:37:02.388Z,34.75
2023-05-27T23:39:29.406Z,36.25
2023-05-27T23:41:58.322Z,32.75
2023-05-27T23:44:26.303Z,34.88
2023-05-27T23:46:53.385Z,36.78
2023-05-27T23:49:20.578Z,33.95
2023-05-27T23:51:48.030Z,34.55
2023-05-27T23:54:15.243Z,34.03
2023-05-27T23:56:42.367Z,43.40
2023-05-27T23:59:09.442Z,40.35
